sensor_id;sensor_type;location;lat;lon;timestamp;P1;durP1;ratioP1;P2;durP2;ratioP2
37267;SDS011;23154;52.542;13.362;2022-08-25T00:04:50;24.08;;;10.57;;
37267;SDS011;23154;52.542;13.362;2022-08-25T00:07:16;22.73;;;11.50;;
37267;SDS011;23154;52.542;13.362;2022-08-25T00:09:42;24.17;;;11.38;;
37267;SDS011;23154;52.542;13.362;2022-08-25T00:12:07;21.52;;;10.63;;
37267;SDS011;23154;52.542;13.362;2022-08-25T00:14:34;24.83;;;11.02;;
37267;SDS011;23154;52.542;13.362;2022-08-25T00:17:01;26.27;;;11.48;;
37267;SDS011;23154;52.542;13.362;2022-08-25T00:19:29;24.95;;;10.98;;
37267;SDS011;23154;52.542;13.362;2022-08-25T00:21:56;24.88;;;11.25;;
37267;SDS011;23154;52.542;13.362;2022-08-25T00:24:23;23.33;;;11.57;;
37267;SDS011;23154;52.542;13.362;2022-08-25T00:26:50;23.42;;;11.38;;
37267;SDS011;23154;52.542;13.362;2022-08-25T00:29:18;21.70;;;10.55;;
37267;SDS011;23154;52.542;13.362;2022-08-25T00:31:45;23.77;;;10.82;;
37267;SDS011;23154;52.542;13.362;2022-08-25T00:34:14;22.67;;;10.90;;
37267;SDS011;23154;52.542;13.362;2022-08-25T00:36:43;24.15;;;11.35;;
37267;SDS011;23154;52.542;13.362;2022-08-25T00:39:11;22.42;;;10.80;;
37267;SDS011;23154;52.542;13.362;2022-08-25T00:41:37;22.77;;;10.70;;
37267;SDS011;23154;52.542;13.362;2022-08-25T00:44:05;22.90;;;11.32;;
37267;SDS011;23154;52.542;13.362;2022-08-25T00:46:34;21.60;;;10.98;;
37267;SDS011;23154;52.542;13.362;2022-08-25T00:51:51;25.00;;;11.10;;
37267;SDS011;23154;52.542;13.362;2022-08-25T00:57:10;26.27;;;11.20;;
37267;SDS011;23154;52.542;13.362;2022-08-25T00:59:38;25.17;;;11.18;;
37267;SDS011;23154;52.542;13.362;2022-08-25T01:02:05;23.65;;;11.52;;
37267;SDS011;23154;52.542;13.362;2022-08-25T01:04:31;24.20;;;12.18;;
37267;SDS011;23154;52.542;13.362;2022-08-25T01:06:57;23.05;;;11.02;;
37267;SDS011;23154;52.542;13.362;2022-08-25T01:09:25;25.02;;;10.85;;
37267;SDS011;23154;52.542;13.362;2022-08-25T01:11:52;28.08;;;12.02;;
37267;SDS011;23154;52.542;13.362;2022-08-25T01:14:18;23.98;;;11.60;;
37267;SDS011;23154;52.542;13.362;2022-08-25T01:16:45;23.30;;;11.45;;
37267;SDS011;23154;52.542;13.362;2022-08-25T01:19:13;23.50;;;10.88;;
37267;SDS011;23154;52.542;13.362;2022-08-25T01:21:41;24.67;;;11.20;;
37267;SDS011;23154;52.542;13.362;2022-08-25T01:24:10;28.17;;;11.80;;
37267;SDS011;23154;52.542;13.362;2022-08-25T01:26:40;24.95;;;12.82;;
37267;SDS011;23154;52.542;13.362;2022-08-25T01:29:06;25.73;;;11.65;;
37267;SDS011;23154;52.542;13.362;2022-08-25T01:31:49;25.23;;;11.82;;
37267;SDS011;23154;52.542;13.362;2022-08-25T01:34:17;22.80;;;11.13;;
37267;SDS011;23154;52.542;13.362;2022-08-25T01:36:43;24.83;;;11.00;;
37267;SDS011;23154;52.542;13.362;2022-08-25T01:39:11;25.63;;;12.02;;
37267;SDS011;23154;52.542;13.362;2022-08-25T01:41:48;23.77;;;11.55;;
37267;SDS011;23154;52.542;13.362;2022-08-25T01:44:26;24.08;;;11.40;;
37267;SDS011;23154;52.542;13.362;2022-08-25T01:46:52;26.63;;;11.57;;
37267;SDS011;23154;52.542;13.362;2022-08-25T01:49:18;23.13;;;11.68;;
37267;SDS011;23154;52.542;13.362;2022-08-25T01:52:01;25.00;;;11.38;;
37267;SDS011;23154;52.542;13.362;2022-08-25T01:54:44;26.67;;;11.83;;
37267;SDS011;23154;52.542;13.362;2022-08-25T01:57:10;24.73;;;11.93;;
37267;SDS011;23154;52.542;13.362;2022-08-25T01:59:35;23.00;;;11.75;;
37267;SDS011;23154;52.542;13.362;2022-08-25T02:02:01;24.50;;;11.73;;
37267;SDS011;23154;52.542;13.362;2022-08-25T02:04:28;27.98;;;11.98;;
37267;SDS011;23154;52.542;13.362;2022-08-25T02:06:56;24.15;;;12.07;;
37267;SDS011;23154;52.542;13.362;2022-08-25T02:09:22;26.92;;;11.93;;
37267;SDS011;23154;52.542;13.362;2022-08-25T02:11:49;25.98;;;11.80;;
37267;SDS011;23154;52.542;13.362;2022-08-25T02:14:15;27.20;;;11.90;;
37267;SDS011;23154;52.542;13.362;2022-08-25T02:16:43;23.08;;;12.02;;
37267;SDS011;23154;52.542;13.362;2022-08-25T02:19:13;27.80;;;12.43;;
37267;SDS011;23154;52.542;13.362;2022-08-25T02:21:39;36.42;;;13.15;;
37267;SDS011;23154;52.542;13.362;2022-08-25T02:24:05;26.25;;;12.27;;
37267;SDS011;23154;52.542;13.362;2022-08-25T02:26:32;29.35;;;12.05;;
37267;SDS011;23154;52.542;13.362;2022-08-25T02:28:58;23.58;;;12.52;;
37267;SDS011;23154;52.542;13.362;2022-08-25T02:31:24;23.83;;;12.60;;
37267;SDS011;23154;52.542;13.362;2022-08-25T02:33:50;27.40;;;12.90;;
37267;SDS011;23154;52.542;13.362;2022-08-25T02:36:16;22.08;;;12.23;;
37267;SDS011;23154;52.542;13.362;2022-08-25T02:38:43;24.05;;;12.27;;
37267;SDS011;23154;52.542;13.362;2022-08-25T02:41:10;29.02;;;12.90;;
37267;SDS011;23154;52.542;13.362;2022-08-25T02:43:38;24.45;;;12.27;;
37267;SDS011;23154;52.542;13.362;2022-08-25T02:46:05;25.45;;;12.30;;
37267;SDS011;23154;52.542;13.362;2022-08-25T02:48:31;27.58;;;12.45;;
37267;SDS011;23154;52.542;13.362;2022-08-25T02:50:58;31.35;;;13.82;;
37267;SDS011;23154;52.542;13.362;2022-08-25T02:53:25;30.35;;;12.90;;
37267;SDS011;23154;52.542;13.362;2022-08-25T02:55:51;24.52;;;13.10;;
37267;SDS011;23154;52.542;13.362;2022-08-25T02:58:17;28.20;;;12.82;;
37267;SDS011;23154;52.542;13.362;2022-08-25T03:00:44;29.45;;;13.32;;
37267;SDS011;23154;52.542;13.362;2022-08-25T03:03:10;27.27;;;13.70;;
37267;SDS011;23154;52.542;13.362;2022-08-25T03:05:36;27.95;;;13.50;;
37267;SDS011;23154;52.542;13.362;2022-08-25T03:08:02;27.48;;;14.13;;
37267;SDS011;23154;52.542;13.362;2022-08-25T03:10:29;30.30;;;14.23;;
37267;SDS011;23154;52.542;13.362;2022-08-25T03:12:55;29.27;;;15.05;;
37267;SDS011;23154;52.542;13.362;2022-08-25T03:15:20;32.08;;;14.27;;
37267;SDS011;23154;52.542;13.362;2022-08-25T03:17:46;28.63;;;14.63;;
37267;SDS011;23154;52.542;13.362;2022-08-25T03:20:14;28.88;;;15.85;;
37267;SDS011;23154;52.542;13.362;2022-08-25T03:22:40;30.30;;;14.70;;
37267;SDS011;23154;52.542;13.362;2022-08-25T03:25:06;32.53;;;16.23;;
37267;SDS011;23154;52.542;13.362;2022-08-25T03:27:51;33.47;;;15.60;;
37267;SDS011;23154;52.542;13.362;2022-08-25T03:30:17;29.08;;;15.10;;
37267;SDS011;23154;52.542;13.362;2022-08-25T03:32:43;28.05;;;15.18;;
37267;SDS011;23154;52.542;13.362;2022-08-25T03:35:09;29.75;;;15.77;;
37267;SDS011;23154;52.542;13.362;2022-08-25T03:37:35;32.80;;;16.35;;
37267;SDS011;23154;52.542;13.362;2022-08-25T03:40:02;31.05;;;15.38;;
37267;SDS011;23154;52.542;13.362;2022-08-25T03:42:29;31.63;;;16.00;;
37267;SDS011;23154;52.542;13.362;2022-08-25T03:44:55;26.92;;;15.90;;
37267;SDS011;23154;52.542;13.362;2022-08-25T03:47:21;24.38;;;14.48;;
37267;SDS011;23154;52.542;13.362;2022-08-25T03:49:49;28.77;;;15.75;;
37267;SDS011;23154;52.542;13.362;2022-08-25T03:52:15;37.33;;;16.95;;
37267;SDS011;23154;52.542;13.362;2022-08-25T03:54:48;35.97;;;17.40;;
37267;SDS011;23154;52.542;13.362;2022-08-25T03:57:14;33.42;;;18.23;;
37267;SDS011;23154;52.542;13.362;2022-08-25T03:59:39;34.08;;;19.75;;
37267;SDS011;23154;52.542;13.362;2022-08-25T04:02:05;35.05;;;19.38;;
37267;SDS011;23154;52.542;13.362;2022-08-25T04:04:31;35.33;;;20.05;;
37267;SDS011;23154;52.542;13.362;2022-08-25T04:06:57;40.30;;;23.23;;
37267;SDS011;23154;52.542;13.362;2022-08-25T04:09:23;38.78;;;21.48;;
37267;SDS011;23154;52.542;13.362;2022-08-25T04:11:49;34.45;;;20.15;;
37267;SDS011;23154;52.542;13.362;2022-08-25T04:14:15;42.05;;;22.48;;
37267;SDS011;23154;52.542;13.362;2022-08-25T04:16:41;42.80;;;24.50;;
37267;SDS011;23154;52.542;13.362;2022-08-25T04:19:07;50.92;;;23.88;;
37267;SDS011;23154;52.542;13.362;2022-08-25T04:21:34;46.53;;;23.92;;
37267;SDS011;23154;52.542;13.362;2022-08-25T04:24:01;45.40;;;25.70;;
37267;SDS011;23154;52.542;13.362;2022-08-25T04:26:47;49.97;;;26.70;;
37267;SDS011;23154;52.542;13.362;2022-08-25T04:29:15;50.60;;;25.40;;
37267;SDS011;23154;52.542;13.362;2022-08-25T04:31:44;44.45;;;26.05;;
37267;SDS011;23154;52.542;13.362;2022-08-25T04:34:11;48.90;;;25.42;;
37267;SDS011;23154;52.542;13.362;2022-08-25T04:36:37;51.60;;;27.02;;
37267;SDS011;23154;52.542;13.362;2022-08-25T04:39:03;43.85;;;26.08;;
37267;SDS011;23154;52.542;13.362;2022-08-25T04:41:30;53.38;;;27.23;;
37267;SDS011;23154;52.542;13.362;2022-08-25T04:43:56;45.58;;;26.52;;
37267;SDS011;23154;52.542;13.362;2022-08-25T04:46:25;45.60;;;26.50;;
37267;SDS011;23154;52.542;13.362;2022-08-25T04:48:53;46.63;;;26.67;;
37267;SDS011;23154;52.542;13.362;2022-08-25T04:51:21;49.97;;;26.38;;
37267;SDS011;23154;52.542;13.362;2022-08-25T04:53:52;52.75;;;31.10;;
37267;SDS011;23154;52.542;13.362;2022-08-25T04:56:18;42.85;;;24.88;;
37267;SDS011;23154;52.542;13.362;2022-08-25T04:58:46;45.03;;;24.63;;
37267;SDS011;23154;52.542;13.362;2022-08-25T05:01:12;40.65;;;24.05;;
37267;SDS011;23154;52.542;13.362;2022-08-25T05:03:40;45.10;;;23.98;;
37267;SDS011;23154;52.542;13.362;2022-08-25T05:06:06;41.20;;;24.35;;
37267;SDS011;23154;52.542;13.362;2022-08-25T05:08:32;35.75;;;21.00;;
37267;SDS011;23154;52.542;13.362;2022-08-25T05:11:03;43.17;;;24.50;;
37267;SDS011;23154;52.542;13.362;2022-08-25T05:13:40;42.95;;;23.02;;
37267;SDS011;23154;52.542;13.362;2022-08-25T05:16:06;42.53;;;22.65;;
37267;SDS011;23154;52.542;13.362;2022-08-25T05:18:32;34.92;;;20.83;;
37267;SDS011;23154;52.542;13.362;2022-08-25T05:21:03;37.97;;;21.67;;
37267;SDS011;23154;52.542;13.362;2022-08-25T05:23:30;40.53;;;23.77;;
37267;SDS011;23154;52.542;13.362;2022-08-25T05:25:59;43.15;;;23.98;;
37267;SDS011;23154;52.542;13.362;2022-08-25T05:28:27;43.88;;;23.30;;
37267;SDS011;23154;52.542;13.362;2022-08-25T05:30:56;40.70;;;21.88;;
37267;SDS011;23154;52.542;13.362;2022-08-25T05:33:23;45.25;;;22.75;;
37267;SDS011;23154;52.542;13.362;2022-08-25T05:35:49;37.30;;;20.75;;
37267;SDS011;23154;52.542;13.362;2022-08-25T05:38:14;38.95;;;21.40;;
37267;SDS011;23154;52.542;13.362;2022-08-25T05:40:40;39.90;;;22.27;;
37267;SDS011;23154;52.542;13.362;2022-08-25T05:43:05;35.60;;;21.95;;
37267;SDS011;23154;52.542;13.362;2022-08-25T05:45:31;41.47;;;22.95;;
37267;SDS011;23154;52.542;13.362;2022-08-25T05:47:56;38.30;;;21.08;;
37267;SDS011;23154;52.542;13.362;2022-08-25T05:50:22;41.50;;;24.80;;
37267;SDS011;23154;52.542;13.362;2022-08-25T05:52:47;39.65;;;22.73;;
37267;SDS011;23154;52.542;13.362;2022-08-25T05:55:13;38.75;;;21.30;;
37267;SDS011;23154;52.542;13.362;2022-08-25T05:57:39;39.90;;;21.35;;
37267;SDS011;23154;52.542;13.362;2022-08-25T06:00:05;46.78;;;21.83;;
37267;SDS011;23154;52.542;13.362;2022-08-25T06:02:31;37.83;;;21.55;;
37267;SDS011;23154;52.542;13.362;2022-08-25T06:05:10;35.97;;;20.88;;
37267;SDS011;23154;52.542;13.362;2022-08-25T06:07:40;39.25;;;20.58;;
37267;SDS011;23154;52.542;13.362;2022-08-25T06:10:06;36.20;;;20.42;;
37267;SDS011;23154;52.542;13.362;2022-08-25T06:12:34;37.80;;;19.70;;
37267;SDS011;23154;52.542;13.362;2022-08-25T06:15:00;36.63;;;21.13;;
37267;SDS011;23154;52.542;13.362;2022-08-25T06:17:27;38.80;;;19.85;;
37267;SDS011;23154;52.542;13.362;2022-08-25T06:19:53;36.42;;;20.42;;
37267;SDS011;23154;52.542;13.362;2022-08-25T06:22:21;35.20;;;20.08;;
37267;SDS011;23154;52.542;13.362;2022-08-25T06:24:49;38.20;;;21.30;;
37267;SDS011;23154;52.542;13.362;2022-08-25T06:27:14;36.63;;;21.10;;
37267;SDS011;23154;52.542;13.362;2022-08-25T06:29:43;44.80;;;22.10;;
37267;SDS011;23154;52.542;13.362;2022-08-25T06:32:08;38.00;;;20.17;;
37267;SDS011;23154;52.542;13.362;2022-08-25T06:34:34;38.05;;;20.63;;
37267;SDS011;23154;52.542;13.362;2022-08-25T06:36:59;39.22;;;20.35;;
37267;SDS011;23154;52.542;13.362;2022-08-25T06:39:25;36.92;;;21.33;;
37267;SDS011;23154;52.542;13.362;2022-08-25T06:41:51;41.35;;;22.27;;
37267;SDS011;23154;52.542;13.362;2022-08-25T06:44:18;38.60;;;21.17;;
37267;SDS011;23154;52.542;13.362;2022-08-25T06:46:45;46.60;;;22.83;;
37267;SDS011;23154;52.542;13.362;2022-08-25T06:49:11;38.75;;;22.20;;
37267;SDS011;23154;52.542;13.362;2022-08-25T06:51:36;36.95;;;19.65;;
37267;SDS011;23154;52.542;13.362;2022-08-25T06:54:03;37.85;;;21.88;;
37267;SDS011;23154;52.542;13.362;2022-08-25T06:56:31;38.78;;;20.73;;
37267;SDS011;23154;52.542;13.362;2022-08-25T06:58:59;37.35;;;21.08;;
37267;SDS011;23154;52.542;13.362;2022-08-25T07:01:25;39.83;;;23.70;;
37267;SDS011;23154;52.542;13.362;2022-08-25T07:03:53;35.75;;;20.92;;
37267;SDS011;23154;52.542;13.362;2022-08-25T07:06:21;39.63;;;21.60;;
37267;SDS011;23154;52.542;13.362;2022-08-25T07:08:48;41.22;;;22.92;;
37267;SDS011;23154;52.542;13.362;2022-08-25T07:11:15;39.22;;;23.00;;
37267;SDS011;23154;52.542;13.362;2022-08-25T07:13:41;40.53;;;21.85;;
37267;SDS011;23154;52.542;13.362;2022-08-25T07:16:07;39.40;;;22.45;;
37267;SDS011;23154;52.542;13.362;2022-08-25T07:18:34;47.95;;;23.73;;
37267;SDS011;23154;52.542;13.362;2022-08-25T07:21:00;43.50;;;24.13;;
37267;SDS011;23154;52.542;13.362;2022-08-25T07:23:26;46.08;;;23.92;;
37267;SDS011;23154;52.542;13.362;2022-08-25T07:25:52;38.13;;;21.60;;
37267;SDS011;23154;52.542;13.362;2022-08-25T07:28:19;42.58;;;23.15;;
37267;SDS011;23154;52.542;13.362;2022-08-25T07:30:46;44.08;;;22.35;;
37267;SDS011;23154;52.542;13.362;2022-08-25T07:33:11;42.47;;;22.67;;
37267;SDS011;23154;52.542;13.362;2022-08-25T07:35:37;45.38;;;23.30;;
37267;SDS011;23154;52.542;13.362;2022-08-25T07:38:03;43.40;;;22.45;;
37267;SDS011;23154;52.542;13.362;2022-08-25T07:40:32;41.72;;;23.13;;
37267;SDS011;23154;52.542;13.362;2022-08-25T07:43:00;44.65;;;23.48;;
37267;SDS011;23154;52.542;13.362;2022-08-25T07:45:33;46.95;;;23.50;;
37267;SDS011;23154;52.542;13.362;2022-08-25T07:48:01;59.47;;;31.95;;
37267;SDS011;23154;52.542;13.362;2022-08-25T07:50:31;46.10;;;22.70;;
37267;SDS011;23154;52.542;13.362;2022-08-25T07:52:57;45.13;;;22.60;;
37267;SDS011;23154;52.542;13.362;2022-08-25T07:55:24;46.20;;;23.95;;
37267;SDS011;23154;52.542;13.362;2022-08-25T07:57:52;45.33;;;23.60;;
37267;SDS011;23154;52.542;13.362;2022-08-25T08:00:19;48.33;;;27.85;;
37267;SDS011;23154;52.542;13.362;2022-08-25T08:02:45;44.40;;;23.15;;
37267;SDS011;23154;52.542;13.362;2022-08-25T08:05:12;50.95;;;28.10;;
37267;SDS011;23154;52.542;13.362;2022-08-25T08:07:38;48.83;;;29.50;;
37267;SDS011;23154;52.542;13.362;2022-08-25T08:10:05;46.20;;;23.88;;
37267;SDS011;23154;52.542;13.362;2022-08-25T08:12:33;45.30;;;23.95;;
37267;SDS011;23154;52.542;13.362;2022-08-25T08:14:59;44.33;;;23.08;;
37267;SDS011;23154;52.542;13.362;2022-08-25T08:17:26;44.55;;;24.17;;
37267;SDS011;23154;52.542;13.362;2022-08-25T08:19:51;41.03;;;23.27;;
37267;SDS011;23154;52.542;13.362;2022-08-25T08:22:18;41.42;;;21.30;;
37267;SDS011;23154;52.542;13.362;2022-08-25T08:24:44;41.08;;;22.50;;
37267;SDS011;23154;52.542;13.362;2022-08-25T08:27:11;39.33;;;22.80;;
37267;SDS011;23154;52.542;13.362;2022-08-25T08:29:38;40.13;;;22.30;;
37267;SDS011;23154;52.542;13.362;2022-08-25T08:32:07;38.08;;;21.52;;
37267;SDS011;23154;52.542;13.362;2022-08-25T08:34:34;38.37;;;21.63;;
37267;SDS011;23154;52.542;13.362;2022-08-25T08:37:00;37.75;;;21.63;;
37267;SDS011;23154;52.542;13.362;2022-08-25T08:39:27;34.20;;;19.40;;
37267;SDS011;23154;52.542;13.362;2022-08-25T08:41:56;35.25;;;20.83;;
37267;SDS011;23154;52.542;13.362;2022-08-25T08:53:15;30.58;;;16.73;;
37267;SDS011;23154;52.542;13.362;2022-08-25T08:55:54;34.47;;;17.70;;
37267;SDS011;23154;52.542;13.362;2022-08-25T08:58:24;33.10;;;17.35;;
37267;SDS011;23154;52.542;13.362;2022-08-25T09:01:05;27.52;;;14.82;;
37267;SDS011;23154;52.542;13.362;2022-08-25T09:06:10;28.67;;;13.93;;
37267;SDS011;23154;52.542;13.362;2022-08-25T09:08:38;29.15;;;14.80;;
37267;SDS011;23154;52.542;13.362;2022-08-25T09:11:10;27.50;;;14.07;;
37267;SDS011;23154;52.542;13.362;2022-08-25T09:14:01;26.27;;;14.55;;
37267;SDS011;23154;52.542;13.362;2022-08-25T09:30:20;27.52;;;12.10;;
37267;SDS011;23154;52.542;13.362;2022-08-25T09:32:47;25.23;;;12.07;;
37267;SDS011;23154;52.542;13.362;2022-08-25T09:35:22;24.92;;;12.60;;
37267;SDS011;23154;52.542;13.362;2022-08-25T09:40:21;25.20;;;12.43;;
37267;SDS011;23154;52.542;13.362;2022-08-25T09:42:50;25.85;;;12.85;;
37267;SDS011;23154;52.542;13.362;2022-08-25T09:45:29;27.80;;;12.95;;
37267;SDS011;23154;52.542;13.362;2022-08-25T09:48:19;22.70;;;11.55;;
37267;SDS011;23154;52.542;13.362;2022-08-25T09:50:47;25.17;;;13.75;;
37267;SDS011;23154;52.542;13.362;2022-08-25T09:53:14;28.88;;;12.45;;
37267;SDS011;23154;52.542;13.362;2022-08-25T09:55:42;22.65;;;11.55;;
37267;SDS011;23154;52.542;13.362;2022-08-25T09:58:17;22.77;;;10.73;;
37267;SDS011;23154;52.542;13.362;2022-08-25T10:00:47;24.80;;;11.80;;
37267;SDS011;23154;52.542;13.362;2022-08-25T10:03:37;25.85;;;11.02;;
37267;SDS011;23154;52.542;13.362;2022-08-25T10:06:16;27.65;;;13.65;;
37267;SDS011;23154;52.542;13.362;2022-08-25T10:11:28;27.13;;;11.00;;
37267;SDS011;23154;52.542;13.362;2022-08-25T10:14:03;23.15;;;9.98;;
37267;SDS011;23154;52.542;13.362;2022-08-25T10:16:29;25.02;;;10.63;;
37267;SDS011;23154;52.542;13.362;2022-08-25T10:21:41;26.20;;;9.95;;
37267;SDS011;23154;52.542;13.362;2022-08-25T10:24:08;24.55;;;9.57;;
37267;SDS011;23154;52.542;13.362;2022-08-25T10:29:23;21.80;;;10.07;;
37267;SDS011;23154;52.542;13.362;2022-08-25T10:35:22;20.75;;;9.38;;
37267;SDS011;23154;52.542;13.362;2022-08-25T10:43:23;24.02;;;8.57;;
37267;SDS011;23154;52.542;13.362;2022-08-25T10:51:14;22.00;;;8.55;;
37267;SDS011;23154;52.542;13.362;2022-08-25T10:57:14;21.13;;;8.35;;
37267;SDS011;23154;52.542;13.362;2022-08-25T11:00:04;21.80;;;7.90;;
37267;SDS011;23154;52.542;13.362;2022-08-25T11:07:46;24.38;;;7.90;;
37267;SDS011;23154;52.542;13.362;2022-08-25T11:10:19;24.92;;;7.72;;
37267;SDS011;23154;52.542;13.362;2022-08-25T11:12:54;22.80;;;8.63;;
37267;SDS011;23154;52.542;13.362;2022-08-25T11:15:38;24.48;;;8.60;;
37267;SDS011;23154;52.542;13.362;2022-08-25T11:18:14;21.23;;;7.57;;
37267;SDS011;23154;52.542;13.362;2022-08-25T11:20:42;18.08;;;7.10;;
37267;SDS011;23154;52.542;13.362;2022-08-25T11:23:17;24.40;;;7.30;;
37267;SDS011;23154;52.542;13.362;2022-08-25T11:25:53;22.77;;;7.78;;
37267;SDS011;23154;52.542;13.362;2022-08-25T11:28:29;24.05;;;8.07;;
37267;SDS011;23154;52.542;13.362;2022-08-25T11:31:00;22.92;;;7.57;;
37267;SDS011;23154;52.542;13.362;2022-08-25T11:33:28;25.00;;;7.00;;
37267;SDS011;23154;52.542;13.362;2022-08-25T11:36:00;24.35;;;7.68;;
37267;SDS011;23154;52.542;13.362;2022-08-25T11:41:51;26.60;;;7.72;;
37267;SDS011;23154;52.542;13.362;2022-08-25T11:47:21;23.25;;;6.75;;
37267;SDS011;23154;52.542;13.362;2022-08-25T11:49:52;24.95;;;7.15;;
37267;SDS011;23154;52.542;13.362;2022-08-25T11:55:05;17.48;;;6.50;;
37267;SDS011;23154;52.542;13.362;2022-08-25T11:57:31;29.23;;;6.97;;
37267;SDS011;23154;52.542;13.362;2022-08-25T12:00:01;23.48;;;7.03;;
37267;SDS011;23154;52.542;13.362;2022-08-25T12:02:43;26.52;;;7.65;;
37267;SDS011;23154;52.542;13.362;2022-08-25T12:12:59;24.33;;;8.05;;
37267;SDS011;23154;52.542;13.362;2022-08-25T12:23:27;21.95;;;6.65;;
37267;SDS011;23154;52.542;13.362;2022-08-25T12:25:54;25.70;;;6.75;;
37267;SDS011;23154;52.542;13.362;2022-08-25T12:28:30;22.83;;;5.90;;
37267;SDS011;23154;52.542;13.362;2022-08-25T12:31:08;29.33;;;6.75;;
37267;SDS011;23154;52.542;13.362;2022-08-25T12:33:55;17.55;;;5.57;;
37267;SDS011;23154;52.542;13.362;2022-08-25T12:36:31;25.27;;;6.70;;
37267;SDS011;23154;52.542;13.362;2022-08-25T12:39:59;23.73;;;6.53;;
37267;SDS011;23154;52.542;13.362;2022-08-25T12:41:56;26.60;;;6.65;;
37267;SDS011;23154;52.542;13.362;2022-08-25T12:49:51;27.15;;;7.35;;
37267;SDS011;23154;52.542;13.362;2022-08-25T12:52:22;25.02;;;6.57;;
37267;SDS011;23154;52.542;13.362;2022-08-25T13:09:07;26.33;;;6.85;;
37267;SDS011;23154;52.542;13.362;2022-08-25T13:14:33;28.33;;;6.13;;
37267;SDS011;23154;52.542;13.362;2022-08-25T13:17:03;26.20;;;6.65;;
37267;SDS011;23154;52.542;13.362;2022-08-25T13:19:29;22.75;;;6.55;;
37267;SDS011;23154;52.542;13.362;2022-08-25T13:21:55;29.35;;;6.57;;
37267;SDS011;23154;52.542;13.362;2022-08-25T13:24:24;22.25;;;6.30;;
37267;SDS011;23154;52.542;13.362;2022-08-25T13:26:53;26.80;;;6.80;;
37267;SDS011;23154;52.542;13.362;2022-08-25T13:29:23;21.70;;;6.38;;
37267;SDS011;23154;52.542;13.362;2022-08-25T13:31:57;20.85;;;6.60;;
37267;SDS011;23154;52.542;13.362;2022-08-25T13:34:26;25.05;;;6.97;;
37267;SDS011;23154;52.542;13.362;2022-08-25T13:37:03;21.58;;;6.68;;
37267;SDS011;23154;52.542;13.362;2022-08-25T13:40:05;22.10;;;6.38;;
37267;SDS011;23154;52.542;13.362;2022-08-25T13:42:33;24.15;;;6.35;;
37267;SDS011;23154;52.542;13.362;2022-08-25T13:45:00;23.33;;;6.90;;
37267;SDS011;23154;52.542;13.362;2022-08-25T13:47:33;24.20;;;6.17;;
37267;SDS011;23154;52.542;13.362;2022-08-25T13:52:55;22.40;;;6.38;;
37267;SDS011;23154;52.542;13.362;2022-08-25T13:55:32;26.20;;;7.28;;
37267;SDS011;23154;52.542;13.362;2022-08-25T13:58:00;23.85;;;6.28;;
37267;SDS011;23154;52.542;13.362;2022-08-25T14:00:28;21.38;;;5.80;;
37267;SDS011;23154;52.542;13.362;2022-08-25T14:03:01;20.63;;;6.70;;
37267;SDS011;23154;52.542;13.362;2022-08-25T14:05:35;24.63;;;5.95;;
37267;SDS011;23154;52.542;13.362;2022-08-25T14:08:04;26.00;;;6.53;;
37267;SDS011;23154;52.542;13.362;2022-08-25T14:10:33;22.45;;;6.07;;
37267;SDS011;23154;52.542;13.362;2022-08-25T14:13:13;20.75;;;5.97;;
37267;SDS011;23154;52.542;13.362;2022-08-25T14:15:51;23.80;;;6.70;;
37267;SDS011;23154;52.542;13.362;2022-08-25T14:18:17;23.85;;;6.15;;
37267;SDS011;23154;52.542;13.362;2022-08-25T14:20:49;26.40;;;6.95;;
37267;SDS011;23154;52.542;13.362;2022-08-25T14:23:19;17.35;;;5.50;;
37267;SDS011;23154;52.542;13.362;2022-08-25T14:25:49;22.33;;;5.70;;
37267;SDS011;23154;52.542;13.362;2022-08-25T14:28:20;22.23;;;6.35;;
37267;SDS011;23154;52.542;13.362;2022-08-25T14:30:48;19.30;;;5.65;;
37267;SDS011;23154;52.542;13.362;2022-08-25T14:33:28;24.85;;;5.95;;
37267;SDS011;23154;52.542;13.362;2022-08-25T14:35:58;24.48;;;5.63;;
37267;SDS011;23154;52.542;13.362;2022-08-25T14:38:26;23.90;;;6.18;;
37267;SDS011;23154;52.542;13.362;2022-08-25T14:40:52;23.65;;;6.13;;
37267;SDS011;23154;52.542;13.362;2022-08-25T14:43:18;21.60;;;5.88;;
37267;SDS011;23154;52.542;13.362;2022-08-25T14:45:44;22.38;;;6.15;;
37267;SDS011;23154;52.542;13.362;2022-08-25T14:48:13;24.10;;;8.48;;
37267;SDS011;23154;52.542;13.362;2022-08-25T14:51:03;22.80;;;7.30;;
37267;SDS011;23154;52.542;13.362;2022-08-25T14:53:29;18.83;;;5.78;;
37267;SDS011;23154;52.542;13.362;2022-08-25T14:55:55;21.95;;;6.13;;
37267;SDS011;23154;52.542;13.362;2022-08-25T14:58:21;25.33;;;6.20;;
37267;SDS011;23154;52.542;13.362;2022-08-25T15:00:48;23.08;;;6.00;;
37267;SDS011;23154;52.542;13.362;2022-08-25T15:03:19;21.08;;;6.32;;
37267;SDS011;23154;52.542;13.362;2022-08-25T15:06:07;25.88;;;6.68;;
37267;SDS011;23154;52.542;13.362;2022-08-25T15:08:35;20.55;;;5.30;;
37267;SDS011;23154;52.542;13.362;2022-08-25T15:11:19;21.42;;;6.00;;
37267;SDS011;23154;52.542;13.362;2022-08-25T15:13:44;20.67;;;5.80;;
37267;SDS011;23154;52.542;13.362;2022-08-25T15:16:12;26.48;;;5.80;;
37267;SDS011;23154;52.542;13.362;2022-08-25T15:18:41;23.17;;;5.95;;
37267;SDS011;23154;52.542;13.362;2022-08-25T15:21:07;22.75;;;5.50;;
37267;SDS011;23154;52.542;13.362;2022-08-25T15:23:33;20.10;;;5.28;;
37267;SDS011;23154;52.542;13.362;2022-08-25T15:25:59;19.23;;;5.47;;
37267;SDS011;23154;52.542;13.362;2022-08-25T15:28:25;19.80;;;5.80;;
37267;SDS011;23154;52.542;13.362;2022-08-25T15:30:51;24.20;;;6.40;;
37267;SDS011;23154;52.542;13.362;2022-08-25T15:33:16;21.35;;;5.53;;
37267;SDS011;23154;52.542;13.362;2022-08-25T15:35:42;24.15;;;7.20;;
37267;SDS011;23154;52.542;13.362;2022-08-25T15:38:09;18.05;;;5.13;;
37267;SDS011;23154;52.542;13.362;2022-08-25T15:40:35;23.08;;;5.72;;
37267;SDS011;23154;52.542;13.362;2022-08-25T15:43:03;24.40;;;6.60;;
37267;SDS011;23154;52.542;13.362;2022-08-25T15:45:29;31.17;;;6.72;;
37267;SDS011;23154;52.542;13.362;2022-08-25T15:47:55;18.42;;;5.68;;
37267;SDS011;23154;52.542;13.362;2022-08-25T15:50:21;24.55;;;5.80;;
37267;SDS011;23154;52.542;13.362;2022-08-25T15:52:47;23.05;;;5.78;;
37267;SDS011;23154;52.542;13.362;2022-08-25T15:55:14;27.30;;;6.63;;
37267;SDS011;23154;52.542;13.362;2022-08-25T15:57:41;21.95;;;5.43;;
37267;SDS011;23154;52.542;13.362;2022-08-25T16:00:07;23.15;;;5.30;;
37267;SDS011;23154;52.542;13.362;2022-08-25T16:02:35;21.25;;;5.70;;
37267;SDS011;23154;52.542;13.362;2022-08-25T16:05:01;23.50;;;6.70;;
37267;SDS011;23154;52.542;13.362;2022-08-25T16:07:27;24.58;;;6.18;;
37267;SDS011;23154;52.542;13.362;2022-08-25T16:09:55;21.42;;;5.68;;
37267;SDS011;23154;52.542;13.362;2022-08-25T16:12:22;27.27;;;6.40;;
37267;SDS011;23154;52.542;13.362;2022-08-25T16:14:49;22.00;;;6.55;;
37267;SDS011;23154;52.542;13.362;2022-08-25T16:17:15;26.35;;;6.55;;
37267;SDS011;23154;52.542;13.362;2022-08-25T16:19:41;26.10;;;6.07;;
37267;SDS011;23154;52.542;13.362;2022-08-25T16:22:06;27.77;;;7.07;;